A- A+ FrançaisEnglishEspañol中国

le plus proche LFRB Brest-Guipavas LFRL Lanveoc-Poulmic LFBT Tarbes-Lourdes-PyrénéesLFNA Gap-Tallard

manche à air

La météo aéronautique pour les pilotes, la préparation du vol avec les METAR (METeorological Aerodrome Report, message d'observation des conditions météorologiques pour l'aviation) et Les TAF (Terminal Aerodrome Forecast : message de prévision à court terme des conditions météorologiques pour l'aviation). Et les autres ressources comme les VAC (Visual Approch Chart) et les NOTAM (Notice To Airman) pour préprer les vols.

Aéroport Warsaw Okecie (Pologne) / OACI EPWA/ IATA WAW

L'altitude de l'aéroport Warsaw Okecie est de 110 m=361 ft. Il est situé à proximité de Warsaw (Pologne). La météo générale à 5 jours est disponible pour Gołąbki situé à 8.4 km.

METAR de l'aéroport Warsaw Okecie - EPWA

EPWA 301530Z 28004KT 240V300 CAVOK 01/M02 Q1018 NOSIG

Décodage du METAR de l'aéroport Warsaw Okecie (PL)

METAR émis par EPWA le samedi 30 novembre 2019 à 15:30 heure TU. Attention ce METAR est obsolète car il a été émis il y a 16 heure et 11 minutes.

La visibilité est de supérieure à 10 km=supérieure à 6.2 sm.

La température est de 1°C=34 °F et le point rosée est de -2°C=28 °F . Ce qui correspond à 80% d'humidité relative.

Le QNH est de 1018 hPa=30.06 inHg

Vent de 4 kt=7 km/h, orienté à 280°.

Pas de nuages.

Aucun changement significatif dans les deux heures à venir

TAF de l'aéroport Warsaw Okecie - EPWA

EPWA 290830Z 2909/3009 22010KT 9999 BKN030 BECMG 2909/2912 28012KT TEMPO 2909/2915 -SHRA SCT012 BKN025CB PROB40 TEMPO 2910/2917 26015G28KT TEMPO 2917/3006 28016G30KT -SHRA BKN007 BKN020TCU

EPWA 290830Z 2909/3009 22010KT 9999 couverture nuageuse fragmentée à 030 devenant 2909/2912 28012KT temporairement 2909/2915 faible SHRA nuages épars à 012 couverture nuageuse fragmentée à 025CB probabilité de 40% d'avoir temporairement 2910/2917 26015G28KT temporairement 2917/3006 28016G30KT faible SHRA couverture nuageuse fragmentée à 007 couverture nuageuse fragmentée à 020TCU

Aéroport à proximité de Warsaw Okecie

Météo générale à 5 jours à Gołąbki (8.4 km)EPBC Aéroport Warsaw Babice (12 km)EPMO Aéroport Modlin (38 km)EPSO Aéroport Sochaczew (46 km)EPMM Aéroport Minsk Mazowiecki (47 km)EPNM Aéroport Nowe Miasto (67 km)EPRP Aéroport Radom Piastow (77 km)

VAC de l'aéroport Warsaw Okecie - EPWA

La carte d'approche à vue (VAC Visual Approah Chart) est fournie sans aucune garantie de son actualité. Le pilote est le seul responsable de la vérification de sa validité avant de l'utiliser opérationnellement pour préparer un vol ou l'utiliser lors de sa navigation.

VAC de EPWA

Vue aérienne de l'aéroport Warsaw Okecie

NOTAM de l'aéroport Warsaw Okecie

Les NOTAM sont fournis sans aucune garantie de leur actualité. Le pilote est le seul responsable de la vérification de sa validité avant de l'utiliser opérationnellement pour préparer un vol ou l'utiliser lors de sa navigation.

Pas de NOTAM

Sources des données